Time;durP1;ratioP1;P1;durP2;ratioP2;P2;SDS_P1;SDS_P2;PMS_P1;PMS_P2;Temp;Humidity;BMP_temperature;BMP_pressure;BME280_temperature;BME280_humidity;BME280_pressure;Samples;Min_cycle;Max_cycle;Signal;HPM_P1;HPM_P2
2023/07/24 00:00:41;;;;;;;37.03;9.98;;;28.40;91.10;;;;;;5093903;28;20054;-70
2023/07/24 00:03:45;;;;;;;48.00;9.90;;;28.40;91.20;;;;;;5094219;28;20063;-70
2023/07/24 00:06:49;;;;;;;28.38;9.45;;;28.30;91.50;;;;;;5093990;28;20047;-70
2023/07/24 00:09:55;;;;;;;28.42;9.13;;;28.40;91.60;;;;;;5093707;28;20059;-70
2023/07/24 00:12:58;;;;;;;35.55;10.93;;;28.30;91.60;;;;;;5094071;28;20502;-70
2023/07/24 00:16:07;;;;;;;31.90;10.93;;;28.30;91.60;;;;;;5093622;28;20043;-70
2023/07/24 00:19:11;;;;;;;23.00;9.20;;;28.20;91.80;;;;;;5093734;28;20043;-70
2023/07/24 00:22:15;;;;;;;37.10;10.30;;;28.30;91.90;;;;;;5093698;28;20403;-70
2023/07/24 00:25:19;;;;;;;32.60;9.73;;;28.30;91.90;;;;;;5093523;28;20047;-70
2023/07/24 00:28:26;;;;;;;34.78;10.85;;;28.30;92.10;;;;;;5093687;28;20051;-70
2023/07/24 00:31:30;;;;;;;30.10;10.45;;;28.20;92.40;;;;;;5093446;28;20043;-70
2023/07/24 00:34:34;;;;;;;26.77;9.70;;;28.00;92.50;;;;;;5093497;28;20039;-70
2023/07/24 00:37:40;;;;;;;35.90;10.38;;;27.90;92.80;;;;;;5093251;28;20054;-70
2023/07/24 00:40:44;;;;;;;39.30;11.30;;;28.00;92.20;;;;;;5092417;28;20055;-70
2023/07/24 00:43:49;;;;;;;34.22;10.95;;;28.00;92.10;;;;;;5092395;28;20408;-71
2023/07/24 00:46:53;;;;;;;30.73;9.07;;;28.00;92.20;;;;;;5093390;28;20051;-70
2023/07/24 00:50:01;;;;;;;29.48;9.55;;;28.10;92.20;;;;;;5093184;28;20031;-70
2023/07/24 00:53:04;;;;;;;35.00;10.35;;;28.00;92.20;;;;;;5093299;28;20618;-71
2023/07/24 00:56:10;;;;;;;33.75;10.38;;;28.10;92.30;;;;;;5093290;28;20043;-70
2023/07/24 00:59:15;;;;;;;37.67;10.48;;;28.10;92.20;;;;;;5092100;28;20097;-70
2023/07/24 01:02:20;;;;;;;30.23;9.85;;;28.10;92.30;;;;;;5092311;28;20043;-70
2023/07/24 01:05:25;;;;;;;28.23;9.95;;;28.00;92.30;;;;;;5093200;28;20043;-70
2023/07/24 01:08:29;;;;;;;36.15;9.93;;;28.00;92.20;;;;;;5091587;28;20506;-70
2023/07/24 01:11:40;;;;;;;30.55;9.27;;;27.90;92.00;;;;;;5092146;28;20038;-70
2023/07/24 01:14:45;;;;;;;;;;;27.80;91.40;;;;;;5092938;28;20411;-70
2023/07/24 01:17:56;;;;;;;34.75;10.60;;;27.80;91.40;;;;;;5091987;28;19915;-70
2023/07/24 01:21:00;;;;;;;;;;;27.80;91.50;;;;;;5093168;28;20074;-70
2023/07/24 01:24:31;;;;;;;33.08;10.57;;;27.80;91.60;;;;;;5092578;28;19919;-70
2023/07/24 01:27:35;;;;;;;32.42;9.85;;;27.80;92.00;;;;;;5091803;28;20043;-70
2023/07/24 01:30:38;;;;;;;32.33;10.70;;;27.70;91.90;;;;;;5080043;28;20043;-71
2023/07/24 01:33:44;;;;;;;29.35;9.55;;;27.60;92.10;;;;;;5092473;28;20391;-70
2023/07/24 01:36:49;;;;;;;32.95;10.00;;;27.60;91.70;;;;;;5080217;28;20055;-70
2023/07/24 01:39:55;;;;;;;32.55;9.85;;;27.40;91.70;;;;;;5091364;28;20044;-71
2023/07/24 01:42:59;;;;;;;27.25;10.10;;;27.30;92.00;;;;;;5092391;28;20047;-70
2023/07/24 01:46:06;;;;;;;34.17;9.73;;;27.30;92.20;;;;;;5092165;28;20475;-71
2023/07/24 01:49:09;;;;;;;25.73;9.32;;;27.40;91.80;;;;;;5091308;28;20039;-70
2023/07/24 01:52:13;;;;;;;26.02;9.15;;;27.40;91.40;;;;;;5091286;28;20376;-70
2023/07/24 01:55:17;;;;;;;34.22;9.05;;;27.30;91.50;;;;;;5091723;28;20047;-70
2023/07/24 01:58:22;;;;;;;33.08;9.68;;;27.30;91.60;;;;;;5090784;28;20287;-70
2023/07/24 02:01:26;;;;;;;30.25;8.77;;;27.40;91.10;;;;;;5090911;28;20542;-70
2023/07/24 02:04:30;;;;;;;26.17;9.13;;;27.30;90.70;;;;;;5091010;28;20039;-70
2023/07/24 02:07:34;;;;;;;20.15;8.25;;;27.30;90.50;;;;;;5091603;28;20062;-70
2023/07/24 02:10:39;;;;;;;29.95;8.48;;;27.40;90.20;;;;;;5091592;28;20047;-71
2023/07/24 02:13:46;;;;;;;25.58;8.38;;;27.40;90.00;;;;;;5091554;28;20039;-70
2023/07/24 02:16:51;;;;;;;26.55;6.95;;;27.40;87.70;;;;;;5090631;28;20047;-70
2023/07/24 02:19:55;;;;;;;30.70;7.30;;;27.20;87.50;;;;;;5091588;28;20047;-70
2023/07/24 02:22:59;;;;;;;25.67;7.00;;;27.30;87.40;;;;;;5090274;28;20434;-70
2023/07/24 02:26:03;;;;;;;25.08;8.02;;;27.20;85.70;;;;;;5092033;28;20059;-70
2023/07/24 02:29:07;;;;;;;24.38;6.55;;;26.80;85.20;;;;;;5091469;28;20054;-70
2023/07/24 02:32:11;;;;;;;24.35;6.70;;;26.70;85.80;;;;;;5091189;28;20047;-70
2023/07/24 02:35:15;;;;;;;25.50;6.95;;;26.80;85.40;;;;;;5091269;28;20375;-70
2023/07/24 02:38:19;;;;;;;21.25;7.47;;;26.80;84.40;;;;;;5091013;28;20043;-70
2023/07/24 02:41:23;;;;;;;17.42;6.05;;;26.90;83.90;;;;;;5090160;28;20058;-70
2023/07/24 02:44:28;;;;;;;21.85;7.15;;;27.00;83.40;;;;;;5090301;28;20396;-70
2023/07/24 02:47:32;;;;;;;22.77;6.15;;;27.00;83.80;;;;;;5091465;28;20047;-70
2023/07/24 02:50:36;;;;;;;24.63;6.20;;;27.00;84.00;;;;;;5090233;28;20043;-70
2023/07/24 02:53:40;;;;;;;18.60;6.28;;;26.80;84.30;;;;;;5090937;28;20035;-70
2023/07/24 02:56:44;;;;;;;24.50;6.80;;;26.60;84.80;;;;;;5090078;28;20050;-70
2023/07/24 02:59:48;;;;;;;21.63;6.30;;;26.60;85.20;;;;;;5090801;28;20114;-70
2023/07/24 03:02:52;;;;;;;21.85;6.60;;;26.50;85.80;;;;;;5090821;28;20039;-70
2023/07/24 03:05:57;;;;;;;19.48;7.03;;;26.50;85.70;;;;;;5090086;28;20498;-70
2023/07/24 03:09:01;;;;;;;24.30;6.97;;;26.50;86.10;;;;;;5090012;28;20066;-70
2023/07/24 03:12:05;;;;;;;27.75;7.28;;;26.40;86.90;;;;;;5089964;28;20403;-70
2023/07/24 03:15:09;;;;;;;29.00;7.18;;;26.40;87.30;;;;;;5089993;28;20066;-70
2023/07/24 03:18:13;;;;;;;19.67;7.10;;;26.30;87.60;;;;;;5090077;28;20054;-70
2023/07/24 03:21:18;;;;;;;21.42;7.40;;;26.20;88.20;;;;;;5090698;28;20064;-70
2023/07/24 03:24:22;;;;;;;33.63;8.52;;;26.20;88.80;;;;;;5090552;28;20055;-70
2023/07/24 03:27:27;;;;;;;26.30;8.13;;;26.20;89.10;;;;;;5090487;28;20299;-70
2023/07/24 03:30:31;;;;;;;27.25;8.10;;;26.20;89.80;;;;;;5090922;28;20039;-71
2023/07/24 03:33:35;;;;;;;23.70;8.13;;;26.20;90.10;;;;;;5091825;28;20509;-71
2023/07/24 03:36:41;;;;;;;33.85;8.00;;;26.20;90.20;;;;;;5094763;28;20149;-70
2023/07/24 03:39:45;;;;;;;31.10;7.57;;;26.30;90.20;;;;;;5094699;28;20043;-70
2023/07/24 03:42:49;;;;;;;32.45;8.20;;;26.30;90.30;;;;;;5093770;28;20059;-70
2023/07/24 03:45:53;;;;;;;25.65;7.88;;;26.30;90.10;;;;;;5094594;28;20201;-70
2023/07/24 03:48:57;;;;;;;35.53;8.75;;;26.40;90.10;;;;;;5094560;28;20047;-70
2023/07/24 03:52:01;;;;;;;32.13;8.93;;;26.40;90.30;;;;;;5093965;28;20047;-71
2023/07/24 03:55:07;;;;;;;29.60;7.28;;;26.40;90.10;;;;;;5094205;28;20126;-70
2023/07/24 03:58:11;;;;;;;38.92;8.18;;;26.50;90.00;;;;;;5094355;28;20390;-71
2023/07/24 04:01:15;;;;;;;30.10;8.00;;;26.60;89.20;;;;;;5093822;28;20055;-70
2023/07/24 04:04:19;;;;;;;27.30;8.35;;;26.60;89.00;;;;;;5093951;28;20043;-71
2023/07/24 04:07:24;;;;;;;23.10;8.32;;;26.70;89.30;;;;;;5093813;28;20043;-70
2023/07/24 04:10:28;;;;;;;39.72;9.90;;;26.70;88.90;;;;;;5093972;28;20039;-70
2023/07/24 04:13:32;;;;;;;32.63;9.07;;;26.70;89.30;;;;;;5093992;28;20522;-70
2023/07/24 04:16:36;;;;;;;30.95;9.90;;;26.80;89.40;;;;;;5094054;28;20058;-70
2023/07/24 04:19:40;;;;;;;41.53;9.45;;;26.70;89.60;;;;;;5093837;28;20522;-71
2023/07/24 04:22:46;;;;;;;47.28;9.82;;;26.70;90.00;;;;;;5093757;28;20062;-70
2023/07/24 04:25:50;;;;;;;34.70;10.13;;;26.80;90.30;;;;;;5093461;28;20071;-71
2023/07/24 04:28:54;;;;;;;39.10;9.60;;;26.90;90.40;;;;;;5093732;28;20043;-71
2023/07/24 04:31:58;;;;;;;33.67;9.05;;;26.90;90.40;;;;;;5093574;28;20043;-71
2023/07/24 04:35:02;;;;;;;37.60;10.63;;;26.90;90.40;;;;;;5093575;28;20051;-71
2023/07/24 04:38:06;;;;;;;39.20;11.13;;;26.90;90.30;;;;;;5093629;28;20411;-71
2023/07/24 04:41:10;;;;;;;31.30;10.35;;;26.80;90.50;;;;;;5093253;28;20051;-71
2023/07/24 04:44:13;;;;;;;30.60;10.35;;;27.00;90.60;;;;;;5092931;28;20043;-71
2023/07/24 04:47:17;;;;;;;43.72;10.70;;;27.00;90.50;;;;;;5093328;28;20043;-70
2023/07/24 04:50:21;;;;;;;48.55;11.35;;;27.20;90.60;;;;;;5093378;28;20050;-70
2023/07/24 04:53:25;;;;;;;57.78;11.25;;;27.40;90.40;;;;;;5092905;28;20039;-71
2023/07/24 04:56:30;;;;;;;69.43;13.48;;;27.70;90.30;;;;;;5093658;28;20047;-70
2023/07/24 04:59:34;;;;;;;122.93;15.88;;;28.10;90.10;;;;;;5093164;28;20050;-70
2023/07/24 05:02:37;;;;;;;63.63;12.93;;;28.20;90.00;;;;;;5092736;28;20059;-70
2023/07/24 05:05:41;;;;;;;63.85;12.45;;;28.30;89.80;;;;;;5092674;28;20043;-70
2023/07/24 05:08:45;;;;;;;64.07;13.27;;;28.50;89.60;;;;;;5092591;28;20047;-70
2023/07/24 05:11:49;;;;;;;48.25;12.70;;;28.70;89.50;;;;;;5092679;28;20043;-70
2023/07/24 05:14:53;;;;;;;41.67;11.48;;;28.90;88.10;;;;;;5092500;28;20035;-71
2023/07/24 05:17:57;;;;;;;59.92;11.90;;;29.00;87.80;;;;;;5092711;28;20126;-71
2023/07/24 05:21:01;;;;;;;45.92;10.75;;;29.10;88.10;;;;;;5092372;28;20039;-71
2023/07/24 05:24:05;;;;;;;124.95;16.42;;;29.20;87.60;;;;;;5091568;28;20497;-70
2023/07/24 05:27:09;;;;;;;56.35;12.07;;;29.40;87.60;;;;;;5091961;28;20043;-71
2023/07/24 05:30:15;;;;;;;47.88;12.25;;;29.50;87.50;;;;;;5092596;28;20039;-71
2023/07/24 05:33:19;;;;;;;44.97;12.05;;;29.50;86.90;;;;;;5092417;28;20062;-71
2023/07/24 05:36:23;;;;;;;87.72;17.95;;;29.60;86.50;;;;;;5092219;28;20031;-72
2023/07/24 05:39:29;;;;;;;38.22;11.40;;;29.70;86.40;;;;;;5092498;28;20059;-70
2023/07/24 05:42:33;;;;;;;64.55;14.02;;;29.80;86.70;;;;;;5092467;28;20047;-70
2023/07/24 05:45:36;;;;;;;49.45;13.15;;;29.90;85.80;;;;;;5091684;28;20503;-70
2023/07/24 05:48:40;;;;;;;58.80;14.15;;;29.90;85.70;;;;;;5091771;28;20039;-71
2023/07/24 05:51:44;;;;;;;50.65;14.50;;;30.10;85.40;;;;;;5091842;28;20040;-71
2023/07/24 05:54:48;;;;;;;54.03;14.20;;;30.10;85.10;;;;;;5091664;28;20039;-71
2023/07/24 05:57:52;;;;;;;34.95;12.32;;;30.00;85.40;;;;;;5090691;28;20046;-71
2023/07/24 06:00:56;;;;;;;46.00;11.82;;;30.10;85.10;;;;;;5090190;28;20510;-71
2023/07/24 06:04:00;;;;;;;48.78;12.98;;;30.40;85.50;;;;;;5091875;28;20039;-72
2023/07/24 06:07:04;;;;;;;68.35;13.27;;;30.60;84.40;;;;;;5089691;28;20118;-71
2023/07/24 06:10:11;;;;;;;41.33;10.68;;;30.90;83.30;;;;;;5091757;28;20047;-71
2023/07/24 06:13:16;;;;;;;38.85;11.82;;;31.00;82.50;;;;;;5091473;28;20059;-69
2023/07/24 06:16:20;;;;;;;41.95;11.07;;;31.10;82.80;;;;;;5091409;28;20419;-71
2023/07/24 06:19:24;;;;;;;40.45;10.73;;;31.40;81.60;;;;;;5091323;28;20039;-71
2023/07/24 06:22:28;;;;;;;51.20;11.88;;;31.40;81.10;;;;;;5091635;28;20526;-71
2023/07/24 06:25:32;;;;;;;55.55;10.88;;;31.40;82.50;;;;;;5091083;28;20063;-72
2023/07/24 06:28:35;;;;;;;40.38;10.40;;;31.50;82.60;;;;;;5091551;28;20047;-82
2023/07/24 06:31:41;;;;;;;45.05;10.70;;;31.90;82.50;;;;;;5091710;28;20415;-77
2023/07/24 06:34:45;;;;;;;36.40;10.80;;;31.80;83.00;;;;;;5091595;28;20063;-77
2023/07/24 06:37:49;;;;;;;34.88;9.88;;;32.90;81.30;;;;;;5091447;28;20055;-80
2023/07/24 06:40:53;;;;;;;36.55;9.45;;;34.00;79.50;;;;;;5091217;28;20055;-67
2023/07/24 06:43:57;;;;;;;41.13;9.63;;;34.90;78.00;;;;;;5091271;28;20602;-78
2023/07/24 06:47:00;;;;;;;47.35;10.05;;;35.40;77.00;;;;;;5091113;28;20046;-70
2023/07/24 06:50:05;;;;;;;32.65;10.48;;;35.70;76.90;;;;;;5091327;28;20051;-73
2023/07/24 06:53:09;;;;;;;39.25;9.43;;;35.70;75.90;;;;;;5090876;28;20039;-72
2023/07/24 06:56:13;;;;;;;44.38;10.30;;;35.60;76.30;;;;;;5090929;28;20431;-77
2023/07/24 06:59:17;;;;;;;39.72;10.27;;;35.40;76.40;;;;;;5091171;28;20055;-74
2023/07/24 07:02:24;;;;;;;39.70;10.68;;;35.50;76.10;;;;;;5090726;28;20070;-85
2023/07/24 07:05:28;;;;;;;47.30;11.65;;;36.00;76.10;;;;;;5091046;28;20062;-71
2023/07/24 07:08:32;;;;;;;52.20;11.13;;;36.40;75.30;;;;;;5092140;28;20050;-73
2023/07/24 07:11:36;;;;;;;42.83;12.77;;;36.40;74.50;;;;;;5095261;28;20051;-76
2023/07/24 07:14:40;;;;;;;43.30;13.85;;;37.10;72.80;;;;;;5095148;28;20043;-72
2023/07/24 07:17:44;;;;;;;38.45;12.90;;;37.00;71.60;;;;;;5094815;28;20035;-71
2023/07/24 07:20:52;;;;;;;47.13;13.00;;;36.40;72.50;;;;;;5094525;28;20051;-71
2023/07/24 07:23:56;;;;;;;43.25;11.23;;;36.00;74.90;;;;;;5094424;28;20498;-71
2023/07/24 07:27:00;;;;;;;36.95;11.15;;;35.30;73.70;;;;;;5094348;28;20043;-71
2023/07/24 07:30:04;;;;;;;41.58;10.05;;;34.90;75.70;;;;;;5094525;28;20043;-71
2023/07/24 07:33:09;;;;;;;39.47;9.57;;;34.80;75.70;;;;;;5094833;28;20067;-71
2023/07/24 07:36:12;;;;;;;39.60;9.18;;;34.70;75.50;;;;;;5094680;28;20293;-70
2023/07/24 07:39:17;;;;;;;38.22;8.65;;;34.90;75.20;;;;;;5094518;28;20043;-71
2023/07/24 07:42:21;;;;;;;47.03;9.23;;;34.90;71.90;;;;;;5094593;28;20047;-71
2023/07/24 07:45:25;;;;;;;40.00;10.18;;;35.10;73.60;;;;;;5094542;28;20031;-73
2023/07/24 07:48:29;;;;;;;48.63;10.13;;;35.40;72.60;;;;;;5094554;28;20051;-71
2023/07/24 07:51:33;;;;;;;34.33;9.18;;;35.60;72.60;;;;;;5094603;28;20066;-70
2023/07/24 07:54:36;;;;;;;46.58;9.00;;;35.70;71.00;;;;;;5093438;28;20185;-71
2023/07/24 07:57:40;;;;;;;41.13;8.40;;;35.80;68.30;;;;;;5094357;28;20074;-71
2023/07/24 08:00:44;;;;;;;36.05;8.27;;;35.90;68.20;;;;;;5094230;28;20047;-71
2023/07/24 08:03:48;;;;;;;32.38;7.63;;;35.90;67.40;;;;;;5094093;28;20059;-71
2023/07/24 08:06:53;;;;;;;40.50;8.77;;;36.00;67.50;;;;;;5093978;28;20039;-72
2023/07/24 08:09:57;;;;;;;44.30;8.70;;;35.80;66.50;;;;;;5094347;28;20282;-70
2023/07/24 08:13:00;;;;;;;36.85;8.27;;;35.90;66.90;;;;;;5094180;28;20047;-71
2023/07/24 08:16:13;;;;;;;32.53;7.82;;;36.00;66.40;;;;;;5093934;28;20043;-71
2023/07/24 08:19:16;;;;;;;31.33;7.28;;;36.20;67.00;;;;;;5093948;28;20043;-71
2023/07/24 08:22:22;;;;;;;32.40;7.80;;;36.30;65.70;;;;;;5092798;28;20055;-71
2023/07/24 08:25:26;;;;;;;37.30;7.70;;;36.20;64.70;;;;;;5093478;28;20511;-71
2023/07/24 08:28:30;;;;;;;25.10;7.03;;;36.10;64.50;;;;;;5093637;28;20071;-71
2023/07/24 08:31:34;;;;;;;37.70;9.13;;;36.20;65.60;;;;;;5093695;28;20059;-71
2023/07/24 08:34:38;;;;;;;34.42;7.68;;;36.20;64.20;;;;;;5093789;28;20055;-71
2023/07/24 08:37:45;;;;;;;37.17;8.50;;;36.20;63.80;;;;;;5093635;28;20118;-71
2023/07/24 08:40:48;;;;;;;26.05;8.40;;;36.10;64.50;;;;;;5092677;28;20431;-71
2023/07/24 08:43:53;;;;;;;33.70;7.93;;;36.10;64.60;;;;;;5093341;28;20047;-72
2023/07/24 08:46:58;;;;;;;31.08;8.52;;;36.20;64.00;;;;;;5093062;28;20503;-72
2023/07/24 08:50:02;;;;;;;33.80;8.45;;;36.30;64.10;;;;;;5092911;28;20043;-72
2023/07/24 08:53:06;;;;;;;38.75;9.30;;;36.30;63.60;;;;;;5092467;28;20455;-72
2023/07/24 08:56:12;;;;;;;45.97;8.27;;;36.30;62.30;;;;;;5092375;28;20051;-72
2023/07/24 08:59:19;;;;;;;25.15;6.97;;;36.30;62.00;;;;;;5092684;28;20051;-72
2023/07/24 09:02:23;;;;;;;24.02;7.32;;;36.30;61.90;;;;;;5092730;28;20055;-71
2023/07/24 09:05:26;;;;;;;28.10;7.20;;;36.30;62.30;;;;;;5092867;28;20076;-72
2023/07/24 09:08:35;;;;;;;26.25;8.13;;;36.40;62.50;;;;;;5093057;28;20043;-71
2023/07/24 09:11:50;;;;;;;23.88;7.10;;;36.30;62.30;;;;;;5092229;28;20043;-71
2023/07/24 09:15:02;;;;;;;29.60;7.47;;;36.30;61.90;;;;;;5092929;28;20043;-72
2023/07/24 09:18:09;;;;;;;29.45;7.80;;;36.40;62.10;;;;;;5092782;28;20051;-72
2023/07/24 09:21:14;;;;;;;32.15;8.02;;;36.30;62.10;;;;;;5092821;28;20051;-72
2023/07/24 09:24:17;;;;;;;26.75;8.23;;;36.20;60.30;;;;;;5092457;28;20058;-72
2023/07/24 09:27:26;;;;;;;34.05;7.53;;;36.20;60.30;;;;;;5092605;28;20118;-71
2023/07/24 09:30:30;;;;;;;37.42;8.25;;;36.10;59.80;;;;;;5092234;28;20038;-72
2023/07/24 09:33:39;;;;;;;34.40;9.45;;;36.10;60.10;;;;;;5092517;28;20035;-71
2023/07/24 09:36:47;;;;;;;32.80;8.60;;;36.20;60.30;;;;;;5087724;28;20075;-70
2023/07/24 09:39:52;;;;;;;27.52;8.68;;;36.20;60.50;;;;;;5090015;28;20630;-72
2023/07/24 09:42:55;;;;;;;37.08;8.65;;;36.20;60.60;;;;;;5091132;28;20050;-72
2023/07/24 09:45:59;;;;;;;47.47;10.48;;;36.20;61.50;;;;;;5091617;28;20039;-72
2023/07/24 09:49:03;;;;;;;33.25;9.68;;;36.20;61.40;;;;;;5091328;28;20059;-71
2023/07/24 09:52:10;;;;;;;37.95;10.00;;;36.60;61.40;;;;;;5092273;28;20039;-71
2023/07/24 09:55:29;;;;;;;45.05;9.93;;;38.30;59.90;;;;;;5092299;28;20051;-70
2023/07/24 09:58:37;;;;;;;37.90;10.23;;;38.50;58.40;;;;;;5091972;28;20491;-70
2023/07/24 10:01:42;;;;;;;46.45;8.98;;;39.60;57.50;;;;;;5091723;28;20059;-75
2023/07/24 10:04:47;;;;;;;37.60;9.50;;;40.00;57.10;;;;;;5092034;28;20043;-78
2023/07/24 10:07:52;;;;;;;36.53;8.88;;;40.00;57.00;;;;;;5091377;28;20047;-73
2023/07/24 10:10:59;;;;;;;38.42;9.77;;;39.90;56.90;;;;;;5091519;28;20044;-74
2023/07/24 10:14:03;;;;;;;42.90;9.57;;;40.60;57.80;;;;;;5091158;28;20054;-75
2023/07/24 10:17:07;;;;;;;41.08;9.88;;;40.70;56.90;;;;;;5091985;28;20043;-73
2023/07/24 10:20:15;;;;;;;38.33;9.35;;;39.90;57.30;;;;;;5091535;28;20051;-75
2023/07/24 10:23:22;;;;;;;35.15;9.45;;;39.20;57.90;;;;;;5091788;28;20419;-72
2023/07/24 10:26:27;;;;;;;28.20;9.05;;;38.80;58.30;;;;;;5091377;28;20523;-74
2023/07/24 10:29:35;;;;;;;23.55;8.32;;;38.50;58.90;;;;;;5091579;28;20051;-74
2023/07/24 10:32:47;;;;;;;39.53;10.18;;;38.40;59.80;;;;;;5091701;28;20114;-74
2023/07/24 10:36:02;;;;;;;29.50;8.35;;;38.10;58.80;;;;;;5091520;28;20499;-74
2023/07/24 10:39:15;;;;;;;26.70;8.48;;;38.00;59.70;;;;;;5090206;28;20046;-73
2023/07/24 10:42:23;;;;;;;37.83;9.70;;;38.00;59.70;;;;;;5090963;28;20515;-74
2023/07/24 10:45:26;;;;;;;20.85;7.82;;;37.90;59.20;;;;;;5091187;28;20495;-73
2023/07/24 10:48:30;;;;;;;20.95;8.35;;;37.80;59.80;;;;;;5091430;28;20059;-74
2023/07/24 10:51:37;;;;;;;32.08;9.18;;;37.90;60.60;;;;;;5091812;28;20043;-73
2023/07/24 10:54:41;;;;;;;31.92;10.05;;;37.90;60.80;;;;;;5091097;28;20066;-74
2023/07/24 10:57:45;;;;;;;28.85;9.63;;;37.90;61.30;;;;;;5090755;28;20039;-74
2023/07/24 11:00:49;;;;;;;41.55;9.40;;;37.90;61.50;;;;;;5091331;28;20395;-75
2023/07/24 11:03:54;;;;;;;31.52;8.40;;;37.90;60.90;;;;;;5090997;28;20063;-75
2023/07/24 11:06:59;;;;;;;28.40;9.25;;;37.90;60.70;;;;;;5091031;28;20444;-75
2023/07/24 11:10:14;;;;;;;29.77;9.35;;;37.90;59.90;;;;;;5091108;28;20047;-74
2023/07/24 11:13:23;;;;;;;36.85;9.32;;;37.90;59.80;;;;;;5091168;28;20055;-74
2023/07/24 11:16:30;;;;;;;36.53;9.53;;;37.80;59.90;;;;;;5091184;28;20055;-74
2023/07/24 11:19:34;;;;;;;43.45;10.00;;;37.80;58.70;;;;;;5090970;28;20277;-73
2023/07/24 11:22:39;;;;;;;36.72;8.90;;;37.80;60.10;;;;;;5090785;28;20047;-74
2023/07/24 11:25:44;;;;;;;48.25;10.32;;;37.80;58.80;;;;;;5090500;28;20043;-74
2023/07/24 11:28:52;;;;;;;25.10;8.38;;;37.80;59.30;;;;;;5090757;28;20641;-70
2023/07/24 11:31:59;;;;;;;39.38;9.60;;;37.80;58.80;;;;;;5090902;28;20036;-75
2023/07/24 11:35:03;;;;;;;34.53;9.10;;;39.30;58.40;;;;;;5090972;28;20040;-76
2023/07/24 11:38:10;;;;;;;39.05;9.57;;;40.90;56.20;;;;;;5090981;28;20491;-78
2023/07/24 11:41:16;;;;;;;38.22;8.82;;;41.60;53.80;;;;;;5090802;28;20055;-74
2023/07/24 11:44:28;;;;;;;38.58;8.63;;;42.20;53.20;;;;;;5090466;28;20190;-75
2023/07/24 11:47:40;;;;;;;30.02;8.82;;;42.50;52.50;;;;;;5090426;28;20051;-75
2023/07/24 11:50:49;;;;;;;36.85;8.40;;;42.80;52.00;;;;;;5090800;28;20055;-76
2023/07/24 11:54:06;;;;;;;44.83;8.43;;;42.60;51.80;;;;;;5090380;28;20063;-75
2023/07/24 11:57:19;;;;;;;35.13;8.27;;;42.50;51.80;;;;;;5094542;28;20047;-75
2023/07/24 12:00:23;;;;;;;43.17;10.13;;;42.40;51.90;;;;;;5094262;28;20396;-75
2023/07/24 12:03:29;;;;;;;27.65;7.80;;;42.40;51.80;;;;;;5094766;28;20051;-74
2023/07/24 12:06:32;;;;;;;29.42;7.95;;;42.40;50.60;;;;;;5093675;28;20039;-75
2023/07/24 12:09:36;;;;;;;36.25;7.70;;;42.70;49.80;;;;;;5094185;28;20597;-76
2023/07/24 12:12:45;;;;;;;37.10;7.40;;;42.40;48.90;;;;;;5094227;28;20248;-73
2023/07/24 12:15:49;;;;;;;33.35;7.65;;;42.80;48.80;;;;;;5094123;28;20133;-72
2023/07/24 12:18:53;;;;;;;33.78;7.68;;;43.00;48.20;;;;;;5094211;28;20050;-75
2023/07/24 12:21:57;;;;;;;27.60;6.78;;;43.00;47.20;;;;;;5093928;28;20499;-76
2023/07/24 12:25:03;;;;;;;38.58;7.13;;;41.90;48.50;;;;;;5093295;28;20515;-75
2023/07/24 12:28:07;;;;;;;36.08;6.80;;;41.40;48.40;;;;;;5093175;28;20047;-76
2023/07/24 12:31:11;;;;;;;17.58;5.60;;;40.90;48.10;;;;;;5093823;28;20039;-76
2023/07/24 12:34:16;;;;;;;21.45;6.18;;;40.50;48.30;;;;;;5093786;28;20051;-76
2023/07/24 12:37:20;;;;;;;46.72;7.28;;;40.20;47.50;;;;;;5093339;28;20126;-75
2023/07/24 12:40:24;;;;;;;16.98;6.03;;;39.90;47.00;;;;;;5093403;28;20081;-75
2023/07/24 12:43:31;;;;;;;17.45;6.70;;;39.70;48.10;;;;;;5093405;28;20047;-76
2023/07/24 12:46:34;;;;;;;24.88;7.68;;;39.50;47.80;;;;;;5093494;28;20526;-77
2023/07/24 12:49:39;;;;;;;28.73;8.05;;;39.40;48.70;;;;;;5093616;28;20051;-76
2023/07/24 12:52:42;;;;;;;29.52;10.82;;;39.30;50.00;;;;;;5092218;28;20035;-76
2023/07/24 12:55:46;;;;;;;29.02;10.38;;;39.10;50.40;;;;;;5093642;28;20047;-76
2023/07/24 12:58:50;;;;;;;32.45;8.70;;;39.10;50.60;;;;;;5093435;28;20047;-76
2023/07/24 13:01:54;;;;;;;32.42;9.95;;;39.00;48.90;;;;;;5093053;28;20047;-76
2023/07/24 13:04:59;;;;;;;25.73;7.68;;;38.90;49.90;;;;;;5093082;28;20043;-75
2023/07/24 13:08:03;;;;;;;45.97;8.77;;;38.80;49.50;;;;;;5092549;28;20043;-76
2023/07/24 13:11:06;;;;;;;26.45;7.93;;;38.70;50.00;;;;;;5093051;28;20063;-76
2023/07/24 13:14:10;;;;;;;26.67;8.00;;;38.70;50.50;;;;;;5093034;28;20047;-75
2023/07/24 13:17:14;;;;;;;27.38;6.80;;;38.60;51.30;;;;;;5092777;28;20039;-75
2023/07/24 13:20:18;;;;;;;23.98;6.20;;;38.60;51.20;;;;;;5092986;28;20051;-75
2023/07/24 13:23:22;;;;;;;36.78;7.32;;;38.50;50.20;;;;;;5092756;28;20403;-74
2023/07/24 13:26:26;;;;;;;32.95;7.50;;;38.50;50.30;;;;;;5092745;28;20043;-76
2023/07/24 13:29:31;;;;;;;34.03;7.15;;;38.40;50.50;;;;;;5092719;28;20526;-77
2023/07/24 13:32:34;;;;;;;26.42;6.70;;;38.30;49.60;;;;;;5092678;28;20490;-76
2023/07/24 13:35:38;;;;;;;25.55;7.03;;;38.30;50.20;;;;;;5092564;28;20047;-76
2023/07/24 13:38:43;;;;;;;31.67;7.75;;;38.30;51.80;;;;;;5092287;28;20039;-77
2023/07/24 13:41:47;;;;;;;25.92;6.70;;;38.20;51.40;;;;;;5091557;28;20055;-76
2023/07/24 13:44:51;;;;;;;29.98;6.88;;;38.20;50.50;;;;;;5091709;28;20039;-76
2023/07/24 13:47:58;;;;;;;28.27;7.28;;;38.20;51.00;;;;;;5092217;28;20507;-76
2023/07/24 13:51:02;;;;;;;25.98;6.63;;;38.10;50.50;;;;;;5092500;28;20038;-76
2023/07/24 13:54:06;;;;;;;32.47;7.03;;;38.10;50.40;;;;;;5092327;28;20039;-77
2023/07/24 13:57:10;;;;;;;39.78;8.07;;;38.10;50.10;;;;;;5090581;28;20051;-77
2023/07/24 14:00:17;;;;;;;49.83;8.25;;;38.50;50.30;;;;;;5090485;28;20067;-77
2023/07/24 14:03:24;;;;;;;36.90;8.05;;;39.60;49.70;;;;;;5090501;28;20400;-75
2023/07/24 14:06:28;;;;;;;32.15;7.57;;;40.90;47.60;;;;;;5089063;28;20039;-77
2023/07/24 14:09:34;;;;;;;33.60;7.20;;;41.90;47.40;;;;;;5089639;28;20047;-73
2023/07/24 14:12:38;;;;;;;41.10;8.43;;;42.00;47.30;;;;;;5089896;28;20067;-75
2023/07/24 14:15:42;;;;;;;31.75;7.53;;;41.70;48.00;;;;;;5089988;28;20122;-79
2023/07/24 14:18:46;;;;;;;40.70;8.32;;;41.40;47.40;;;;;;5090624;28;20043;-77
2023/07/24 14:21:50;;;;;;;35.17;7.60;;;41.60;48.50;;;;;;5091672;28;20055;-76
2023/07/24 14:24:54;;;;;;;31.90;7.13;;;41.70;47.80;;;;;;5091076;28;20079;-83
2023/07/24 14:27:58;;;;;;;34.88;8.02;;;41.70;47.90;;;;;;5090515;28;20043;-80
2023/07/24 14:31:06;;;;;;;30.23;6.90;;;41.60;48.30;;;;;;5091649;28;20058;-73
2023/07/24 14:34:11;;;;;;;29.77;7.80;;;41.50;48.40;;;;;;5091473;28;20051;-73
2023/07/24 14:37:15;;;;;;;35.65;7.32;;;41.80;48.50;;;;;;5091256;28;20289;-77
2023/07/24 14:40:22;;;;;;;35.33;7.75;;;41.60;48.20;;;;;;5091728;28;20047;-71
2023/07/24 14:43:26;;;;;;;57.35;9.40;;;41.70;48.30;;;;;;5091278;28;20055;-78
2023/07/24 14:46:30;;;;;;;35.42;8.52;;;41.50;48.30;;;;;;5091413;28;20035;-78
2023/07/24 14:49:33;;;;;;;52.45;7.65;;;41.70;48.00;;;;;;5091239;28;20067;-77
2023/07/24 14:52:37;;;;;;;46.20;7.93;;;41.50;47.70;;;;;;5091156;28;20043;-76
2023/07/24 14:55:42;;;;;;;35.08;7.78;;;41.80;48.30;;;;;;5091435;28;20387;-78
2023/07/24 14:58:47;;;;;;;43.17;7.88;;;41.60;47.90;;;;;;5091569;28;20051;-78
2023/07/24 15:01:51;;;;;;;30.58;7.00;;;41.60;48.10;;;;;;5091030;28;20075;-77
2023/07/24 15:04:54;;;;;;;45.55;8.13;;;41.70;47.40;;;;;;5091388;28;20043;-77
2023/07/24 15:07:58;;;;;;;37.17;7.32;;;41.70;47.30;;;;;;5090978;28;20229;-74
2023/07/24 15:11:03;;;;;;;33.10;7.38;;;41.50;47.20;;;;;;5091221;28;20395;-75
2023/07/24 15:14:07;;;;;;;38.60;7.68;;;41.20;47.40;;;;;;5090961;28;20050;-76
2023/07/24 15:17:14;;;;;;;42.03;8.32;;;41.10;47.70;;;;;;5089807;28;20039;-79
2023/07/24 15:20:17;;;;;;;32.60;7.32;;;41.10;48.10;;;;;;5091506;28;20399;-81
2023/07/24 15:23:24;;;;;;;33.67;7.82;;;41.30;48.60;;;;;;5090801;28;20510;-76
2023/07/24 15:26:28;;;;;;;37.55;8.20;;;41.40;49.00;;;;;;5091036;28;20047;-76
2023/07/24 15:29:32;;;;;;;38.63;8.30;;;41.30;49.00;;;;;;5092227;28;20051;-82
2023/07/24 15:32:36;;;;;;;43.22;8.80;;;41.30;49.20;;;;;;5095286;28;20047;-82
2023/07/24 15:35:40;;;;;;;38.90;8.45;;;41.50;49.20;;;;;;5095391;28;20039;-76
2023/07/24 15:38:45;;;;;;;36.67;7.97;;;41.30;48.80;;;;;;5097582;28;20043;-83
2023/07/24 15:41:49;;;;;;;34.83;8.23;;;40.90;49.20;;;;;;5096776;28;20047;-81
2023/07/24 15:44:53;;;;;;;34.70;8.00;;;40.80;49.90;;;;;;5096982;28;20047;-81
2023/07/24 15:47:57;;;;;;;45.78;7.97;;;40.90;49.90;;;;;;5095477;28;20051;-77